createdAt,value
2023-08-11T00:01:15.047Z,5.78
2023-08-11T00:03:41.541Z,5.60
2023-08-11T00:06:08.077Z,5.63
2023-08-11T00:08:34.492Z,5.35
2023-08-11T00:11:00.845Z,5.27
2023-08-11T00:13:28.259Z,5.25
2023-08-11T00:15:54.890Z,5.38
2023-08-11T00:18:21.302Z,5.60
2023-08-11T00:20:47.781Z,5.43
2023-08-11T00:23:14.221Z,5.07
2023-08-11T00:25:40.741Z,5.53
2023-08-11T00:28:07.277Z,4.90
2023-08-11T00:30:33.783Z,5.15
2023-08-11T00:33:00.373Z,5.85
2023-08-11T00:35:26.843Z,5.20
2023-08-11T00:37:53.241Z,5.25
2023-08-11T00:40:19.975Z,5.30
2023-08-11T00:42:46.527Z,4.93
2023-08-11T00:45:12.973Z,5.40
2023-08-11T00:47:41.601Z,5.27
2023-08-11T00:50:09.097Z,5.20
2023-08-11T00:52:35.659Z,5.97
2023-08-11T00:55:02.566Z,5.85
2023-08-11T00:57:29.038Z,5.85
2023-08-11T00:59:55.548Z,5.47
2023-08-11T01:02:22.189Z,5.30
2023-08-11T01:04:48.752Z,5.20
2023-08-11T01:07:15.106Z,5.25
2023-08-11T01:10:27.869Z,5.07
2023-08-11T01:13:20.078Z,4.50
2023-08-11T01:16:00.256Z,5.50
2023-08-11T01:18:28.344Z,5.28
2023-08-11T01:21:00.334Z,5.05
2023-08-11T01:23:27.346Z,4.95
2023-08-11T01:25:54.441Z,4.77
2023-08-11T01:28:20.969Z,4.70
2023-08-11T01:30:47.415Z,4.75
2023-08-11T01:33:13.932Z,5.20
2023-08-11T01:35:42.164Z,5.30
2023-08-11T01:38:10.432Z,4.63
2023-08-11T01:40:37.791Z,4.85
2023-08-11T01:43:05.729Z,4.97
2023-08-11T01:45:32.407Z,5.22
2023-08-11T01:48:01.841Z,4.60
2023-08-11T01:50:29.213Z,5.13
2023-08-11T01:52:55.944Z,4.82
2023-08-11T01:55:22.488Z,4.78
2023-08-11T01:57:58.585Z,3.78
2023-08-11T02:00:26.252Z,4.50
2023-08-11T02:02:53.607Z,4.23
2023-08-11T02:05:21.215Z,4.80
2023-08-11T02:07:47.689Z,4.45
2023-08-11T02:10:14.711Z,4.57
2023-08-11T02:12:41.778Z,4.45
2023-08-11T02:15:09.403Z,4.80
2023-08-11T02:17:36.290Z,4.72
2023-08-11T02:20:03.001Z,4.50
2023-08-11T02:22:29.388Z,4.28
2023-08-11T02:24:55.762Z,4.75
2023-08-11T02:27:22.146Z,4.90
2023-08-11T02:29:48.562Z,4.47
2023-08-11T02:32:16.090Z,4.65
2023-08-11T02:34:42.591Z,5.20
2023-08-11T02:37:09.355Z,4.20
2023-08-11T02:39:37.774Z,4.50
2023-08-11T02:42:05.831Z,5.18
2023-08-11T02:44:32.554Z,4.13
2023-08-11T02:46:59.005Z,4.32
2023-08-11T02:49:25.446Z,4.47
2023-08-11T02:51:51.890Z,4.40
2023-08-11T02:54:18.432Z,4.32
2023-08-11T02:56:49.068Z,4.25
2023-08-11T02:59:15.716Z,4.30
2023-08-11T03:01:42.254Z,4.75
2023-08-11T03:04:08.906Z,3.50
2023-08-11T03:06:35.439Z,4.72
2023-08-11T03:09:02.328Z,4.40
2023-08-11T03:11:29.054Z,4.72
2023-08-11T03:13:55.622Z,4.32
2023-08-11T03:16:22.128Z,4.40
2023-08-11T03:18:48.516Z,3.90
2023-08-11T03:21:19.829Z,3.70
2023-08-11T03:23:47.341Z,4.40
2023-08-11T03:26:16.012Z,4.45
2023-08-11T03:28:42.593Z,4.13
2023-08-11T03:31:09.322Z,4.68
2023-08-11T03:33:35.866Z,4.20
2023-08-11T03:36:02.833Z,4.20
2023-08-11T03:38:29.363Z,5.05
2023-08-11T03:40:55.860Z,4.40
2023-08-11T03:43:22.316Z,4.90
2023-08-11T03:45:51.278Z,4.72
2023-08-11T03:48:17.806Z,4.72
2023-08-11T03:50:44.393Z,4.80
2023-08-11T03:53:11.034Z,4.87
2023-08-11T03:55:37.503Z,4.85
2023-08-11T03:58:04.118Z,4.63
2023-08-11T04:00:30.621Z,4.85
2023-08-11T04:02:57.279Z,5.63
2023-08-11T04:05:23.879Z,5.13
2023-08-11T04:07:50.388Z,5.00
2023-08-11T04:10:16.868Z,5.30
2023-08-11T04:12:43.305Z,5.20
2023-08-11T04:15:10.220Z,5.53
2023-08-11T04:17:36.748Z,5.33
2023-08-11T04:20:04.401Z,5.35
2023-08-11T04:22:38.691Z,5.13
2023-08-11T04:25:12.020Z,6.07
2023-08-11T04:27:39.466Z,6.18
2023-08-11T04:30:07.233Z,5.73
2023-08-11T04:32:34.011Z,6.25
2023-08-11T04:35:00.607Z,6.30
2023-08-11T04:37:29.559Z,6.30
2023-08-11T04:39:56.022Z,6.60
2023-08-11T04:42:22.638Z,6.17
2023-08-11T04:44:49.122Z,7.13
2023-08-11T04:47:15.755Z,7.82
2023-08-11T04:49:42.816Z,6.47
2023-08-11T04:52:10.441Z,6.25
2023-08-11T04:54:37.259Z,6.40
2023-08-11T04:57:04.118Z,7.28
2023-08-11T04:59:32.562Z,6.63
2023-08-11T05:01:59.398Z,6.80
2023-08-11T05:04:25.999Z,7.18
2023-08-11T05:06:52.534Z,7.30
2023-08-11T05:09:19.058Z,7.00
2023-08-11T05:12:03.291Z,7.20
2023-08-11T05:14:34.688Z,7.18
2023-08-11T05:17:10.407Z,6.43
2023-08-11T05:19:43.331Z,8.00
2023-08-11T05:22:17.642Z,7.70
2023-08-11T05:24:47.063Z,8.38
2023-08-11T05:27:13.633Z,8.43
2023-08-11T05:29:43.292Z,7.95
2023-08-11T05:32:09.968Z,8.60
2023-08-11T05:34:42.344Z,8.32
2023-08-11T05:37:09.497Z,8.15
2023-08-11T05:39:39.014Z,8.13
2023-08-11T05:42:10.088Z,8.65
2023-08-11T05:44:48.479Z,8.20
2023-08-11T05:47:31.217Z,7.88
2023-08-11T05:50:00.505Z,9.02
2023-08-11T05:52:34.406Z,9.60
2023-08-11T05:55:13.231Z,9.20
2023-08-11T05:57:41.354Z,9.43
2023-08-11T06:00:08.511Z,8.20
2023-08-11T06:02:38.188Z,8.45
2023-08-11T06:05:13.441Z,9.73
2023-08-11T06:07:42.684Z,9.40
2023-08-11T06:10:13.550Z,9.80
2023-08-11T06:12:40.210Z,8.65
2023-08-11T06:15:12.586Z,9.60
2023-08-11T06:17:39.827Z,8.77
2023-08-11T06:20:20.681Z,9.38
2023-08-11T06:23:05.777Z,8.97
2023-08-11T06:25:33.388Z,8.88
2023-08-11T06:28:03.691Z,8.52
2023-08-11T06:30:32.851Z,8.60
2023-08-11T06:32:59.710Z,8.50
2023-08-11T06:35:28.893Z,8.23
2023-08-11T06:38:10.109Z,7.90
2023-08-11T06:40:39.142Z,8.93
2023-08-11T06:43:22.260Z,8.00
2023-08-11T06:45:49.095Z,7.72
2023-08-11T06:48:17.972Z,8.60
2023-08-11T06:50:48.004Z,8.60
2023-08-11T06:53:20.766Z,8.18
2023-08-11T06:56:03.269Z,8.00
2023-08-11T06:58:38.278Z,7.80
2023-08-11T07:01:17.326Z,8.37
2023-08-11T07:03:51.170Z,7.93
2023-08-11T07:06:18.098Z,7.57
2023-08-11T07:08:54.992Z,8.10
2023-08-11T07:11:28.300Z,7.47
2023-08-11T07:14:09.252Z,7.80
2023-08-11T07:17:12.222Z,7.60
2023-08-11T07:19:50.806Z,8.27
2023-08-11T07:22:28.982Z,8.13
2023-08-11T07:25:06.997Z,6.90
2023-08-11T07:27:49.819Z,6.77
2023-08-11T07:30:21.918Z,8.20
2023-08-11T07:32:55.797Z,7.65
2023-08-11T07:35:43.981Z,7.93
2023-08-11T07:38:12.564Z,7.82
2023-08-11T07:40:42.590Z,6.87
2023-08-11T07:43:19.664Z,7.45
2023-08-11T07:46:00.193Z,6.47
2023-08-11T07:48:34.399Z,7.28
2023-08-11T07:51:11.968Z,6.10
2023-08-11T07:53:38.905Z,6.07
2023-08-11T07:56:09.977Z,7.10
2023-08-11T07:58:45.497Z,6.60
2023-08-11T08:01:23.551Z,7.18
2023-08-11T08:03:58.198Z,6.72
2023-08-11T08:06:35.577Z,6.23
2023-08-11T08:09:05.507Z,7.18
2023-08-11T08:11:32.566Z,6.70
2023-08-11T08:14:02.127Z,6.28
2023-08-11T08:16:28.937Z,6.75
2023-08-11T08:19:02.319Z,7.20
2023-08-11T08:21:38.981Z,6.90
2023-08-11T08:24:10.635Z,6.65
2023-08-11T08:26:37.881Z,6.70
2023-08-11T08:31:47.954Z,6.23
2023-08-11T08:34:15.098Z,6.20
2023-08-11T08:36:44.108Z,6.47
2023-08-11T08:39:10.691Z,6.13
2023-08-11T08:41:41.775Z,5.85
2023-08-11T08:44:08.815Z,5.27
2023-08-11T08:46:38.548Z,5.82
2023-08-11T08:49:10.203Z,5.13
2023-08-11T08:51:41.452Z,4.78
2023-08-11T08:54:08.478Z,5.13
2023-08-11T08:56:36.451Z,5.40
2023-08-11T08:59:03.519Z,5.60
2023-08-11T09:01:30.626Z,6.22
2023-08-11T09:03:58.791Z,5.50
2023-08-11T09:06:27.295Z,6.07
2023-08-11T09:08:55.063Z,5.20
2023-08-11T09:11:22.016Z,5.15
2023-08-11T09:13:48.947Z,5.13
2023-08-11T09:16:15.930Z,4.95
2023-08-11T09:18:44.542Z,4.80
2023-08-11T09:21:13.994Z,5.20
2023-08-11T09:23:42.789Z,4.90
2023-08-11T09:26:12.093Z,4.20
2023-08-11T09:28:40.741Z,3.97
2023-08-11T09:31:07.747Z,4.63
2023-08-11T09:33:35.284Z,4.13
2023-08-11T09:36:02.227Z,4.72
2023-08-11T09:38:30.515Z,4.47
2023-08-11T09:41:01.539Z,4.20
2023-08-11T09:43:29.165Z,4.18
2023-08-11T09:45:59.239Z,3.80
2023-08-11T09:48:27.483Z,3.50
2023-08-11T09:50:55.125Z,4.22
2023-08-11T09:53:30.909Z,3.67
2023-08-11T09:55:59.047Z,3.83
2023-08-11T09:58:28.277Z,4.10
2023-08-11T10:01:03.936Z,4.03
2023-08-11T10:03:46.162Z,3.60
2023-08-11T10:06:24.391Z,4.28
2023-08-11T10:08:52.155Z,4.07
2023-08-11T10:11:22.588Z,3.87
2023-08-11T10:13:50.343Z,4.40
2023-08-11T10:16:18.392Z,4.25
2023-08-11T10:18:45.063Z,4.10
2023-08-11T10:21:12.104Z,4.00
2023-08-11T10:23:38.872Z,4.07
2023-08-11T10:26:07.394Z,5.18
2023-08-11T10:28:35.298Z,3.65
2023-08-11T10:31:05.478Z,3.45
2023-08-11T10:33:33.032Z,4.03
2023-08-11T10:36:05.545Z,4.27
2023-08-11T10:38:34.168Z,4.07
2023-08-11T10:41:06.183Z,3.58
2023-08-11T10:43:40.002Z,4.10
2023-08-11T10:46:26.186Z,4.53
2023-08-11T10:49:14.067Z,4.03
2023-08-11T10:51:43.328Z,3.83
2023-08-11T10:54:09.962Z,3.65
2023-08-11T10:56:42.386Z,4.05
2023-08-11T10:59:14.508Z,3.67
2023-08-11T11:01:43.803Z,3.50
2023-08-11T11:04:10.777Z,3.53
2023-08-11T11:06:37.457Z,3.53
2023-08-11T11:09:04.990Z,3.40
2023-08-11T11:11:32.072Z,3.63
2023-08-11T11:13:58.706Z,3.20
2023-08-11T11:16:25.925Z,3.30
2023-08-11T11:18:52.638Z,3.30
2023-08-11T11:21:19.919Z,3.10
2023-08-11T11:23:47.969Z,3.03
2023-08-11T11:26:43.550Z,3.43
2023-08-11T11:29:10.293Z,3.70
2023-08-11T11:31:39.631Z,3.47
2023-08-11T11:34:06.533Z,3.58
2023-08-11T11:36:35.587Z,3.20
2023-08-11T11:39:05.155Z,3.33
2023-08-11T11:41:33.501Z,3.42
2023-08-11T11:44:01.099Z,3.53
2023-08-11T11:46:32.335Z,3.80
2023-08-11T11:48:59.402Z,3.90
2023-08-11T11:51:27.136Z,4.53
2023-08-11T11:53:56.561Z,4.40
2023-08-11T11:56:23.319Z,4.20
2023-08-11T11:58:50.713Z,4.72
2023-08-11T12:01:23.377Z,4.97
2023-08-11T12:03:51.598Z,4.67
2023-08-11T12:06:19.836Z,5.57
2023-08-11T12:08:49.285Z,4.80
2023-08-11T12:11:23.885Z,4.97
2023-08-11T12:13:51.148Z,5.00
2023-08-11T12:16:18.579Z,6.00
2023-08-11T12:18:45.317Z,5.00
2023-08-11T12:21:12.268Z,5.00
2023-08-11T12:23:38.822Z,6.38
2023-08-11T12:26:07.321Z,6.03
2023-08-11T12:28:33.775Z,5.40
2023-08-11T12:31:01.000Z,4.78
2023-08-11T12:33:28.556Z,5.70
2023-08-11T12:35:55.316Z,5.03
2023-08-11T12:38:22.001Z,5.75
2023-08-11T12:40:49.672Z,4.10
2023-08-11T12:43:16.677Z,3.90
2023-08-11T12:45:44.425Z,4.07
2023-08-11T12:48:11.176Z,3.63
2023-08-11T12:50:37.740Z,3.28
2023-08-11T12:53:05.375Z,3.33
2023-08-11T12:55:34.027Z,3.42
2023-08-11T12:58:03.374Z,3.25
2023-08-11T13:00:30.544Z,3.38
2023-08-11T13:02:57.392Z,3.17
2023-08-11T13:05:24.277Z,2.83
2023-08-11T13:07:50.814Z,3.42
2023-08-11T13:10:17.553Z,3.40
2023-08-11T13:12:44.405Z,2.80
2023-08-11T13:15:11.233Z,2.95
2023-08-11T13:17:37.788Z,2.83
2023-08-11T13:20:05.870Z,3.42
2023-08-11T13:22:32.577Z,4.15
2023-08-11T13:24:59.809Z,3.50
2023-08-11T13:27:26.351Z,4.20
2023-08-11T13:29:54.837Z,3.57
2023-08-11T13:32:21.403Z,3.80
2023-08-11T13:34:48.053Z,3.90
2023-08-11T13:37:14.662Z,4.10
2023-08-11T13:39:41.244Z,3.97
2023-08-11T13:42:11.496Z,3.50
2023-08-11T13:44:45.915Z,4.75
2023-08-11T13:47:12.738Z,3.90
2023-08-11T13:49:40.543Z,3.35
2023-08-11T13:52:11.932Z,3.22
2023-08-11T13:54:38.657Z,2.83
2023-08-11T13:57:05.774Z,2.63
2023-08-11T13:59:32.345Z,2.53
2023-08-11T14:02:01.147Z,2.58
2023-08-11T14:04:27.771Z,2.83
2023-08-11T14:07:00.983Z,2.63
2023-08-11T14:09:37.703Z,3.15
2023-08-11T14:14:48.914Z,2.72
2023-08-11T14:17:24.226Z,2.90
2023-08-11T14:19:50.768Z,2.53
2023-08-11T14:22:22.754Z,2.70
2023-08-11T14:24:54.684Z,2.97
2023-08-11T14:27:25.363Z,2.53
2023-08-11T14:29:51.837Z,2.78
2023-08-11T14:32:24.774Z,2.67
2023-08-11T14:35:01.389Z,3.15
2023-08-11T14:37:28.297Z,2.92
2023-08-11T14:39:55.983Z,3.15
2023-08-11T14:42:34.365Z,2.92
2023-08-11T14:45:05.247Z,2.70
2023-08-11T14:47:47.867Z,3.13
2023-08-11T14:50:18.396Z,3.15
2023-08-11T14:52:48.954Z,3.30
2023-08-11T14:55:20.196Z,3.28
2023-08-11T14:57:47.879Z,3.10
2023-08-11T15:00:15.014Z,3.30
2023-08-11T15:02:42.381Z,2.83
2023-08-11T15:05:11.111Z,3.35
2023-08-11T15:07:37.899Z,3.20
2023-08-11T15:10:14.987Z,3.37
2023-08-11T15:12:42.248Z,3.00
2023-08-11T15:15:09.489Z,2.92
2023-08-11T15:17:42.719Z,3.15
2023-08-11T15:20:11.883Z,2.75
2023-08-11T15:22:38.849Z,2.87
2023-08-11T15:25:09.197Z,2.80
2023-08-11T15:27:36.778Z,3.25
2023-08-11T15:30:10.291Z,3.30
2023-08-11T15:32:43.006Z,2.42
2023-08-11T15:35:15.735Z,2.40
2023-08-11T15:37:45.747Z,2.67
2023-08-11T15:40:12.764Z,2.10
2023-08-11T15:42:39.546Z,2.22
2023-08-11T15:45:15.832Z,2.33
2023-08-11T15:47:49.227Z,2.27
2023-08-11T15:50:29.480Z,2.55
2023-08-11T15:52:58.342Z,1.80
2023-08-11T15:55:54.129Z,2.08
2023-08-11T15:58:21.194Z,1.98
2023-08-11T16:00:53.009Z,1.60
2023-08-11T16:03:20.090Z,2.20
2023-08-11T16:05:49.263Z,2.42
2023-08-11T16:08:22.927Z,3.25
2023-08-11T16:10:52.614Z,2.65
2023-08-11T16:13:19.668Z,2.60
2023-08-11T16:15:47.792Z,2.53
2023-08-11T16:18:14.957Z,2.97
2023-08-11T16:20:46.637Z,2.67
2023-08-11T16:23:22.843Z,3.22
2023-08-11T16:25:56.279Z,3.33
2023-08-11T16:28:49.463Z,3.45
2023-08-11T16:31:16.517Z,3.60
2023-08-11T16:33:45.957Z,3.90
2023-08-11T16:36:12.865Z,4.22
2023-08-11T16:38:39.667Z,4.20
2023-08-11T16:41:09.322Z,4.45
2023-08-11T16:43:42.170Z,3.65
2023-08-11T16:46:11.807Z,3.90
2023-08-11T16:48:40.972Z,3.78
2023-08-11T16:51:07.730Z,3.80
2023-08-11T16:53:35.511Z,3.55
2023-08-11T16:56:03.654Z,4.00
2023-08-11T16:58:35.640Z,3.58
2023-08-11T17:01:02.546Z,3.20
2023-08-11T17:03:29.574Z,3.50
2023-08-11T17:05:59.844Z,3.72
2023-08-11T17:08:26.680Z,3.88
2023-08-11T17:10:53.545Z,3.25
2023-08-11T17:13:20.173Z,3.50
2023-08-11T17:15:51.352Z,2.63
2023-08-11T17:18:20.278Z,3.13
2023-08-11T17:20:56.926Z,2.78
2023-08-11T17:23:28.339Z,2.97
2023-08-11T17:25:56.018Z,2.80
2023-08-11T17:28:24.825Z,2.77
2023-08-11T17:30:53.668Z,3.00
2023-08-11T17:33:24.649Z,3.20
2023-08-11T17:36:18.656Z,2.88
2023-08-11T17:38:48.352Z,2.88
2023-08-11T17:41:17.680Z,2.23
2023-08-11T17:43:48.926Z,2.38
2023-08-11T17:46:15.881Z,2.70
2023-08-11T17:48:47.584Z,2.25
2023-08-11T17:51:15.405Z,2.40
2023-08-11T17:53:42.625Z,2.27
2023-08-11T17:56:12.296Z,2.20
2023-08-11T17:58:39.123Z,2.05
2023-08-11T18:01:08.793Z,2.40
2023-08-11T18:03:35.379Z,2.40
2023-08-11T18:06:04.541Z,2.53
2023-08-11T18:08:31.089Z,2.45
2023-08-11T18:10:57.930Z,2.20
2023-08-11T18:13:24.470Z,2.03
2023-08-11T18:15:51.116Z,2.30
2023-08-11T18:18:17.616Z,2.10
2023-08-11T18:20:44.172Z,2.75
2023-08-11T18:23:10.585Z,2.40
2023-08-11T18:25:37.127Z,2.58
2023-08-11T18:28:03.893Z,3.15
2023-08-11T18:30:30.581Z,2.37
2023-08-11T18:32:57.188Z,2.97
2023-08-11T18:35:26.142Z,2.22
2023-08-11T18:37:52.636Z,2.60
2023-08-11T18:40:19.470Z,3.05
2023-08-11T18:42:49.192Z,2.60
2023-08-11T18:45:16.758Z,2.70
2023-08-11T18:47:45.772Z,2.30
2023-08-11T18:50:12.264Z,2.63
2023-08-11T18:52:40.752Z,2.35
2023-08-11T18:55:07.426Z,2.70
2023-08-11T18:57:33.997Z,2.80
2023-08-11T19:00:00.505Z,2.30
2023-08-11T19:02:26.964Z,2.40
2023-08-11T19:04:53.568Z,2.65
2023-08-11T19:07:20.057Z,2.50
2023-08-11T19:09:46.563Z,2.50
2023-08-11T19:12:16.160Z,2.55
2023-08-11T19:14:42.628Z,2.55
2023-08-11T19:17:09.205Z,2.30
2023-08-11T19:19:35.980Z,2.67
2023-08-11T19:22:03.625Z,2.53
2023-08-11T19:24:29.993Z,2.38
2023-08-11T19:26:56.456Z,2.40
2023-08-11T19:29:23.166Z,2.45
2023-08-11T19:31:49.706Z,2.83
2023-08-11T19:34:17.152Z,2.45
2023-08-11T19:36:43.614Z,2.17
2023-08-11T19:39:11.046Z,2.30
2023-08-11T19:41:37.468Z,2.10
2023-08-11T19:44:04.061Z,2.37
2023-08-11T19:46:31.554Z,2.38
2023-08-11T19:48:58.157Z,2.00
2023-08-11T19:51:24.684Z,2.65
2023-08-11T19:53:51.235Z,2.10
2023-08-11T19:56:17.645Z,2.10
2023-08-11T19:58:44.125Z,2.30
2023-08-11T20:01:10.661Z,2.30
2023-08-11T20:03:38.163Z,2.20
2023-08-11T20:06:04.708Z,2.20
2023-08-11T20:08:31.131Z,2.13
2023-08-11T20:10:57.574Z,2.55
2023-08-11T20:13:24.125Z,2.10
2023-08-11T20:15:56.484Z,2.10
2023-08-11T20:18:23.020Z,2.13
2023-08-11T20:20:49.402Z,2.00
2023-08-11T20:23:15.817Z,2.10
2023-08-11T20:25:42.354Z,2.05
2023-08-11T20:28:08.792Z,2.13
2023-08-11T20:30:35.861Z,2.28
2023-08-11T20:33:02.957Z,2.30
2023-08-11T20:35:29.421Z,2.40
2023-08-11T20:37:55.918Z,2.20
2023-08-11T20:40:23.471Z,1.90
2023-08-11T20:42:50.882Z,1.90
2023-08-11T20:45:17.429Z,2.37
2023-08-11T20:47:43.887Z,2.13
2023-08-11T20:50:10.688Z,1.73
2023-08-11T20:52:37.054Z,2.28
2023-08-11T20:55:03.723Z,2.00
2023-08-11T20:57:30.182Z,2.03
2023-08-11T20:59:57.652Z,1.80
2023-08-11T21:02:25.148Z,2.20
2023-08-11T21:04:52.595Z,2.42
2023-08-11T21:07:19.076Z,2.20
2023-08-11T21:09:45.775Z,1.97
2023-08-11T21:12:14.636Z,2.33
2023-08-11T21:14:41.534Z,2.40
2023-08-11T21:17:09.800Z,2.13
2023-08-11T21:19:38.245Z,2.28
2023-08-11T21:22:05.150Z,2.10
2023-08-11T21:24:31.900Z,2.00
2023-08-11T21:26:58.608Z,2.33
2023-08-11T21:29:25.435Z,2.20
2023-08-11T21:31:52.425Z,2.20
2023-08-11T21:34:19.294Z,2.30
2023-08-11T21:36:46.192Z,2.10
2023-08-11T21:39:13.061Z,2.00
2023-08-11T21:41:39.762Z,2.30
2023-08-11T21:44:06.703Z,1.80
2023-08-11T21:46:34.283Z,3.00
2023-08-11T21:49:01.044Z,2.28
2023-08-11T21:51:27.855Z,2.60
2023-08-11T21:53:56.396Z,3.10
2023-08-11T21:56:22.934Z,2.60
2023-08-11T21:58:49.416Z,2.77
2023-08-11T22:01:17.105Z,2.83
2023-08-11T22:03:43.670Z,3.08
2023-08-11T22:06:13.063Z,3.03
2023-08-11T22:08:40.023Z,2.70
2023-08-11T22:11:06.801Z,3.07
2023-08-11T22:13:33.638Z,3.40
2023-08-11T22:16:00.304Z,3.10
2023-08-11T22:18:27.017Z,3.00
2023-08-11T22:20:54.418Z,3.17
2023-08-11T22:23:20.986Z,3.03
2023-08-11T22:25:47.503Z,3.35
2023-08-11T22:28:13.982Z,3.50
2023-08-11T22:30:40.566Z,3.33
2023-08-11T22:33:08.290Z,3.03
2023-08-11T22:35:34.829Z,3.43
2023-08-11T22:38:01.374Z,3.47
2023-08-11T22:40:27.979Z,3.45
2023-08-11T22:42:54.546Z,3.35
2023-08-11T22:45:22.417Z,3.03
2023-08-11T22:47:49.138Z,3.80
2023-08-11T22:50:15.761Z,3.80
2023-08-11T22:52:42.340Z,3.47
2023-08-11T22:55:08.916Z,3.33
2023-08-11T22:57:35.369Z,3.05
2023-08-11T23:00:01.921Z,3.87
2023-08-11T23:02:28.592Z,3.58
2023-08-11T23:04:55.162Z,3.35
2023-08-11T23:07:22.551Z,3.42
2023-08-11T23:09:50.131Z,3.03
2023-08-11T23:12:16.713Z,3.50
2023-08-11T23:14:43.578Z,3.80
2023-08-11T23:17:10.324Z,3.58
2023-08-11T23:19:37.160Z,3.25
2023-08-11T23:22:03.720Z,3.50
2023-08-11T23:24:30.451Z,3.33
2023-08-11T23:26:56.937Z,3.50
2023-08-11T23:29:23.537Z,3.97
2023-08-11T23:31:50.090Z,3.17
2023-08-11T23:34:16.663Z,3.55
2023-08-11T23:36:43.276Z,3.30
2023-08-11T23:39:09.762Z,3.17
2023-08-11T23:41:36.264Z,2.97
2023-08-11T23:44:02.832Z,3.80
2023-08-11T23:46:29.733Z,3.78
2023-08-11T23:52:18.950Z,3.20
2023-08-11T23:54:51.928Z,3.42
2023-08-11T23:57:18.569Z,3.00
2023-08-11T23:59:45.221Z,2.97
